Time;durP1;ratioP1;P1;durP2;ratioP2;P2;SDS_P1;SDS_P2;PMS_P1;PMS_P2;Temp;Humidity;BMP_temperature;BMP_pressure;BME280_temperature;BME280_humidity;BME280_pressure;Samples;Min_cycle;Max_cycle;Signal;HPM_P1;HPM_P2
2021/11/26 00:02:22;;;;;;;25.50;18.45;;;5.50;99.90;;;5.53;71.78;99955.13;5057286;28;20177;-78
2021/11/26 00:04:52;;;;;;;28.92;18.13;;;5.50;99.90;;;5.57;71.63;99951.00;5057052;28;20205;-78
2021/11/26 00:07:23;;;;;;;24.92;18.30;;;5.50;99.90;;;5.57;71.52;99951.00;5057421;28;20677;-78
2021/11/26 00:09:53;;;;;;;25.65;17.55;;;5.50;99.90;;;5.52;71.35;99948.06;5039715;28;20220;-77
2021/11/26 00:12:23;;;;;;;30.80;17.00;;;5.50;99.90;;;5.45;71.75;99938.31;5057714;28;20169;-77
2021/11/26 00:15:05;;;;;;;42.78;19.23;;;5.50;99.90;;;5.41;71.82;99942.41;5056993;28;20204;-76
2021/11/26 00:17:38;;;;;;;26.45;19.73;;;5.40;99.90;;;5.42;72.11;99936.84;5056168;28;20169;-76
2021/11/26 00:20:09;;;;;;;33.13;18.23;;;5.40;99.90;;;5.40;71.94;99941.59;5055638;28;20169;-76
2021/11/26 00:22:40;;;;;;;30.20;17.38;;;5.40;99.90;;;5.55;71.58;99941.50;5055730;28;20626;-75
2021/11/26 00:25:12;;;;;;;31.17;19.35;;;5.50;99.90;;;5.43;71.84;99938.50;5055650;28;20173;-76
2021/11/26 00:27:42;;;;;;;25.17;16.70;;;5.40;99.90;;;5.45;71.66;99927.59;5055928;28;20177;-76
2021/11/26 00:30:12;;;;;;;26.70;16.48;;;5.50;99.90;;;5.41;71.88;99932.50;5055332;28;20578;-75
2021/11/26 00:32:41;;;;;;;25.77;17.02;;;5.40;99.90;;;5.40;71.86;99928.16;5055195;28;20181;-76
2021/11/26 00:35:11;;;;;;;30.42;18.33;;;5.40;99.90;;;5.36;71.52;99929.56;5055898;28;20261;-76
2021/11/26 00:37:40;;;;;;;29.02;18.30;;;5.40;99.90;;;5.35;71.66;99935.97;5055599;28;20291;-76
2021/11/26 00:40:12;;;;;;;23.52;17.95;;;5.40;99.90;;;5.33;71.67;99929.09;5056907;28;20200;-76
2021/11/26 00:42:42;;;;;;;25.23;17.25;;;5.30;99.90;;;5.37;72.13;99928.56;5055758;28;20173;-77
2021/11/26 00:45:14;;;;;;;20.95;15.02;;;5.30;99.90;;;5.36;71.82;99926.06;5038292;28;20196;-77
2021/11/26 00:47:49;;;;;;;30.65;16.23;;;5.40;99.90;;;5.45;71.63;99924.91;5055646;28;20231;-77
2021/11/26 00:50:19;;;;;;;23.77;17.70;;;5.40;99.90;;;5.47;71.49;99922.88;5055504;28;20192;-77
2021/11/26 00:52:49;;;;;;;28.17;17.75;;;5.40;99.90;;;5.46;71.25;99924.72;5055856;28;20173;-77
2021/11/26 00:55:19;;;;;;;32.13;17.70;;;5.50;99.90;;;5.43;71.03;99917.03;5057320;28;20173;-77
2021/11/26 00:57:49;;;;;;;28.52;18.00;;;5.40;99.90;;;5.30;71.72;99918.78;5040287;28;20250;-77
2021/11/26 01:00:20;;;;;;;29.55;16.70;;;5.30;99.90;;;5.35;71.53;99922.53;5061111;28;20541;-77
2021/11/26 01:02:50;;;;;;;26.15;16.60;;;5.30;99.90;;;5.46;71.03;99914.00;5060338;28;20593;-78
2021/11/26 01:05:20;;;;;;;30.60;18.23;;;5.40;99.90;;;5.51;71.52;99922.28;5058400;28;20173;-77
2021/11/26 01:07:50;;;;;;;27.02;16.80;;;5.40;99.90;;;5.43;71.33;99909.00;5059639;28;20657;-77
2021/11/26 01:10:24;;;;;;;27.55;20.50;;;5.40;99.90;;;5.34;71.41;99910.16;5058672;28;20193;-77
2021/11/26 01:12:54;;;;;;;28.30;17.35;;;5.30;99.90;;;5.37;71.45;99908.94;5059381;28;20212;-76
2021/11/26 01:15:28;;;;;;;22.23;16.33;;;5.40;99.90;;;5.37;71.48;99901.72;5057783;28;20173;-74
2021/11/26 01:17:58;;;;;;;40.78;16.55;;;5.30;99.90;;;5.36;71.09;99905.44;5056925;28;20169;-76
2021/11/26 01:20:30;;;;;;;28.88;16.30;;;5.30;99.90;;;5.42;71.03;99904.63;5059824;28;20660;-76
2021/11/26 01:23:01;;;;;;;25.17;15.10;;;5.40;99.90;;;5.46;70.63;99895.22;5037763;28;20216;-76
2021/11/26 01:25:32;;;;;;;26.55;16.60;;;5.40;99.90;;;5.41;70.96;99900.31;5039307;28;20188;-75
2021/11/26 01:28:02;;;;;;;26.63;14.70;;;5.40;99.90;;;5.46;70.79;99889.84;5061257;28;20552;-76
2021/11/26 01:30:34;;;;;;;21.38;15.80;;;5.40;99.90;;;5.46;70.83;99889.84;5059425;28;20212;-76
2021/11/26 01:33:08;;;;;;;28.35;17.30;;;5.40;99.90;;;5.51;70.77;99886.56;5041098;28;20213;-76
2021/11/26 01:35:38;;;;;;;24.05;16.17;;;5.50;99.90;;;5.44;71.33;99891.03;5058397;28;20173;-78
2021/11/26 01:38:10;;;;;;;23.92;15.05;;;5.40;99.90;;;5.50;70.88;99883.06;5058873;28;20173;-76
2021/11/26 01:40:43;;;;;;;25.77;16.25;;;5.50;99.90;;;5.43;70.96;99884.84;5041223;28;20235;-77
2021/11/26 01:43:20;;;;;;;23.85;15.65;;;5.40;99.90;;;5.42;71.18;99891.22;5041054;28;20216;-77
2021/11/26 01:45:53;;;;;;;25.13;15.23;;;5.40;99.90;;;5.23;71.90;99875.78;5060269;28;20196;-76
2021/11/26 01:48:25;;;;;;;27.92;16.23;;;5.30;99.90;;;5.44;70.96;99880.31;5040989;28;20189;-76
2021/11/26 01:50:55;;;;;;;27.80;16.58;;;5.30;99.90;;;5.33;71.37;99872.78;5056350;28;20196;-77
2021/11/26 01:53:24;;;;;;;23.27;15.65;;;5.30;99.90;;;5.40;71.16;99866.47;5057218;28;20247;-77
2021/11/26 01:55:55;;;;;;;25.00;16.15;;;5.40;99.90;;;5.43;71.35;99871.44;5039175;28;20243;-77
2021/11/26 01:58:24;;;;;;;32.25;17.02;;;5.30;99.90;;;5.38;71.32;99868.50;5057941;28;20669;-76
2021/11/26 02:00:56;;;;;;;28.15;15.93;;;5.40;99.90;;;5.40;71.50;99874.50;5062826;28;20255;-74
2021/11/26 02:03:26;;;;;;;32.63;16.35;;;5.40;99.90;;;5.37;71.33;99864.19;5071628;28;20319;-76
2021/11/26 02:05:55;;;;;;;28.10;15.18;;;5.30;99.90;;;5.28;71.86;99859.94;5071090;28;20387;-77
2021/11/26 02:08:25;;;;;;;28.90;17.42;;;5.30;99.90;;;5.31;71.49;99859.56;5069950;28;20657;-76
2021/11/26 02:10:55;;;;;;;28.42;16.85;;;5.30;99.90;;;5.45;71.39;99855.97;5067213;28;20283;-77
2021/11/26 02:13:26;;;;;;;26.33;17.20;;;5.40;99.90;;;5.43;71.19;99844.59;5066965;28;20205;-77
2021/11/26 02:15:55;;;;;;;29.33;15.10;;;5.40;99.90;;;5.44;71.20;99848.13;5067173;28;20176;-76
2021/11/26 02:18:24;;;;;;;26.00;16.27;;;5.40;99.90;;;5.38;71.46;99838.97;5065313;28;20197;-76
2021/11/26 02:20:55;;;;;;;27.85;16.05;;;5.40;99.90;;;5.28;71.18;99838.47;5064649;28;20289;-77
2021/11/26 02:23:24;;;;;;;20.58;15.00;;;5.30;99.90;;;5.18;71.51;99833.44;5054046;28;20220;-77
2021/11/26 02:25:54;;;;;;;22.67;14.90;;;5.20;99.90;;;5.34;71.38;99829.66;5036452;28;20185;-79
2021/11/26 02:28:24;;;;;;;26.58;16.13;;;5.30;99.90;;;5.33;71.07;99828.00;5055743;28;20239;-77
2021/11/26 02:30:54;;;;;;;22.92;16.25;;;5.30;99.90;;;5.29;71.75;99813.31;5055223;28;20551;-77
2021/11/26 02:33:24;;;;;;;29.52;15.15;;;5.30;99.90;;;5.33;71.34;99819.97;5054533;28;20272;-77
2021/11/26 02:35:56;;;;;;;24.73;15.70;;;5.30;99.90;;;5.29;71.63;99812.50;5038467;28;20184;-77
2021/11/26 02:38:29;;;;;;;27.80;15.85;;;5.30;99.90;;;5.23;71.77;99808.72;5057364;28;20176;-77
2021/11/26 02:40:58;;;;;;;24.75;14.80;;;5.20;99.90;;;5.29;71.65;99802.59;5056577;28;20187;-77
2021/11/26 02:43:28;;;;;;;23.88;16.20;;;5.30;99.90;;;5.30;71.60;99804.25;5036443;28;20216;-78
2021/11/26 02:45:57;;;;;;;26.00;16.40;;;5.30;99.90;;;5.30;71.37;99804.25;5053499;28;20642;-77
2021/11/26 02:48:27;;;;;;;31.08;15.80;;;5.30;99.90;;;5.35;71.17;99801.81;5053425;28;20175;-77
2021/11/26 02:50:58;;;;;;;31.02;15.82;;;5.30;99.90;;;5.30;71.71;99798.91;5053197;28;20597;-78
2021/11/26 02:53:27;;;;;;;23.40;16.17;;;5.30;99.90;;;5.35;71.44;99784.91;5053527;28;20211;-77
2021/11/26 02:55:59;;;;;;;25.58;15.50;;;5.30;99.90;;;5.29;71.60;99791.88;5037613;28;20212;-77
2021/11/26 02:58:29;;;;;;;24.80;15.63;;;5.30;99.90;;;5.42;71.32;99791.16;5055277;28;20185;-78
2021/11/26 03:01:01;;;;;;;20.60;13.95;;;5.40;99.90;;;5.34;71.43;99789.44;5053363;28;20169;-77
2021/11/26 03:03:31;;;;;;;22.98;15.20;;;5.30;99.90;;;5.36;71.10;99787.41;5036646;28;20224;-77
2021/11/26 03:06:06;;;;;;;24.33;15.55;;;5.30;99.90;;;5.33;71.41;99790.44;5053705;28;20169;-77
2021/11/26 03:08:37;;;;;;;27.27;15.00;;;5.30;99.90;;;5.38;71.37;99790.69;5066190;28;20222;-77
2021/11/26 03:11:07;;;;;;;30.92;14.07;;;5.30;99.90;;;5.40;71.02;99783.28;5075824;28;20604;-77
2021/11/26 03:13:36;;;;;;;29.35;17.15;;;5.30;99.90;;;5.38;71.31;99788.00;5076252;28;20740;-77
2021/11/26 03:16:06;;;;;;;29.55;13.85;;;5.30;99.90;;;5.42;71.08;99775.84;5080165;28;20172;-76
2021/11/26 03:18:37;;;;;;;30.83;17.63;;;5.40;99.90;;;5.32;71.29;99779.94;5065839;28;20227;-76
2021/11/26 03:21:09;;;;;;;23.67;15.27;;;5.30;99.90;;;5.33;71.46;99782.41;5077069;28;20188;-77
2021/11/26 03:23:40;;;;;;;21.13;16.42;;;5.30;99.90;;;5.38;71.30;99777.28;5073732;28;20758;-77
2021/11/26 03:26:09;;;;;;;35.42;16.10;;;5.30;99.90;;;5.17;71.88;99777.34;5074915;28;20172;-77
2021/11/26 03:28:48;;;;;;;29.45;15.55;;;5.20;99.90;;;5.23;71.71;99774.69;5060854;28;20191;-77
2021/11/26 03:31:22;;;;;;;29.02;15.85;;;5.20;99.90;;;5.32;71.90;99771.88;5058554;28;20212;-77
2021/11/26 03:33:51;;;;;;;29.48;16.02;;;5.30;99.90;;;5.36;71.57;99781.19;5073858;28;20235;-75
2021/11/26 03:36:21;;;;;;;25.48;15.90;;;5.30;99.90;;;5.45;71.27;99766.59;5072185;28;20176;-75
2021/11/26 03:38:51;;;;;;;24.05;16.58;;;5.40;99.90;;;5.40;71.65;99763.69;5071881;28;20168;-75
2021/11/26 03:41:20;;;;;;;18.83;14.93;;;5.40;99.90;;;5.45;70.94;99766.59;5072125;28;20637;-76
2021/11/26 03:43:49;;;;;;;23.00;14.57;;;5.40;99.90;;;5.44;70.58;99756.91;5071973;28;20277;-76
2021/11/26 03:46:19;;;;;;;23.30;15.65;;;5.40;99.90;;;5.35;70.93;99758.91;5072270;28;20598;-76
2021/11/26 03:48:49;;;;;;;29.05;16.15;;;5.40;99.90;;;5.33;71.26;99760.94;5072007;28;20180;-76
2021/11/26 03:51:18;;;;;;;24.33;17.20;;;5.30;99.90;;;5.45;71.12;99764.75;5054235;28;20216;-75
2021/11/26 03:53:48;;;;;;;23.58;15.85;;;5.40;99.90;;;5.33;71.63;99760.94;5072628;28;20211;-75
2021/11/26 03:56:17;;;;;;;27.17;16.73;;;5.30;99.90;;;5.32;71.70;99759.31;5071945;28;20172;-76
2021/11/26 03:58:46;;;;;;;29.58;17.67;;;5.30;99.90;;;5.30;72.07;99752.47;5071843;28;20691;-76
2021/11/26 04:01:16;;;;;;;27.85;17.90;;;5.30;99.90;;;5.40;71.58;99751.09;5071796;28;20252;-75
2021/11/26 04:03:45;;;;;;;25.75;16.30;;;5.30;99.90;;;5.43;71.75;99745.31;5053886;28;20252;-76
2021/11/26 04:06:14;;;;;;;23.38;16.70;;;5.40;99.90;;;5.36;71.88;99744.47;5071996;28;20239;-75
2021/11/26 04:08:43;;;;;;;25.15;15.93;;;5.40;99.90;;;5.43;71.17;99742.66;5072469;28;20244;-75
2021/11/26 04:11:14;;;;;;;23.05;15.73;;;5.40;99.90;;;5.41;71.54;99742.03;5072500;28;20549;-76
2021/11/26 04:13:43;;;;;;;25.70;14.48;;;5.40;99.90;;;5.48;70.77;99740.19;5054114;28;20234;-75
2021/11/26 04:16:14;;;;;;;25.15;15.95;;;5.40;99.90;;;5.43;70.73;99742.66;5059044;28;20198;-76
2021/11/26 04:18:43;;;;;;;27.17;16.73;;;5.40;99.90;;;5.36;71.48;99733.75;5061688;28;20208;-77
2021/11/26 04:21:13;;;;;;;28.08;14.93;;;5.30;99.90;;;5.40;71.39;99731.50;5080247;28;20177;-75
2021/11/26 04:23:44;;;;;;;32.45;18.40;;;5.40;99.90;;;5.31;71.33;99730.81;5079101;28;20200;-75
2021/11/26 04:26:14;;;;;;;27.90;16.80;;;5.30;99.90;;;5.28;71.28;99728.50;5076429;28;20173;-75
2021/11/26 04:28:43;;;;;;;30.33;15.98;;;5.30;99.90;;;5.42;70.89;99727.56;5076297;28;20168;-76
2021/11/26 04:31:13;;;;;;;24.33;14.75;;;5.40;99.90;;;5.38;71.62;99728.16;5076043;28;20199;-76
2021/11/26 04:33:42;;;;;;;25.70;15.43;;;5.40;99.90;;;5.40;71.43;99729.63;5075535;28;20207;-75
2021/11/26 04:36:11;;;;;;;28.58;16.42;;;5.40;99.90;;;5.30;70.80;99722.97;5075399;28;20246;-76
2021/11/26 04:38:40;;;;;;;23.67;14.60;;;5.30;99.90;;;5.30;71.17;99726.47;5074952;28;20245;-76
2021/11/26 04:41:09;;;;;;;20.50;14.32;;;5.30;99.90;;;5.22;70.98;99715.91;5057395;28;20219;-75
2021/11/26 04:43:40;;;;;;;30.60;13.77;;;5.30;99.90;;;5.28;71.28;99720.47;5075031;28;20569;-75
2021/11/26 04:46:09;;;;;;;22.30;13.85;;;5.20;99.90;;;5.15;70.62;99710.50;5057119;28;20182;-76
2021/11/26 04:48:38;;;;;;;26.27;15.30;;;5.20;99.90;;;5.19;70.44;99711.75;5075058;28;20180;-76
2021/11/26 04:51:08;;;;;;;25.83;14.55;;;5.20;99.90;;;5.32;70.26;99705.66;5075113;28;20180;-75
2021/11/26 04:53:37;;;;;;;24.67;14.18;;;5.20;99.90;;;5.23;70.41;99706.81;5057139;28;20228;-76
2021/11/26 04:56:06;;;;;;;27.98;14.70;;;5.20;99.90;;;5.25;70.05;99707.44;5074752;28;20188;-76
2021/11/26 04:58:39;;;;;;;16.98;12.25;;;5.20;99.90;;;5.21;70.04;99703.50;5075079;28;20196;-76
2021/11/26 05:01:08;;;;;;;20.10;12.30;;;5.20;99.90;;;5.17;70.29;99704.94;5074698;28;20175;-76
2021/11/26 05:03:40;;;;;;;18.55;13.27;;;5.10;99.90;;;5.26;70.00;99706.44;5075141;28;20200;-76
2021/11/26 05:06:09;;;;;;;23.40;13.40;;;5.20;99.90;;;5.25;70.13;99708.28;5056548;28;20180;-76
2021/11/26 05:08:39;;;;;;;32.85;14.82;;;5.20;99.90;;;5.27;70.18;99709.94;5073172;23;20224;-83
2021/11/26 05:11:10;;;;;;;23.70;13.60;;;5.20;99.90;;;5.33;70.43;99696.56;5066406;28;20196;-83
2021/11/26 05:13:44;;;;;;;20.52;12.52;;;5.30;99.90;;;5.31;70.72;99695.94;5049732;28;20296;-83
2021/11/26 05:16:18;;;;;;;20.67;14.30;;;5.30;99.90;;;5.34;70.61;99703.59;5050161;28;20184;-84
2021/11/26 05:18:49;;;;;;;22.95;15.32;;;5.30;99.90;;;5.38;70.54;99693.28;5068721;28;20212;-83
2021/11/26 05:21:25;;;;;;;31.38;15.95;;;5.30;99.90;;;5.34;71.33;99683.97;5052883;28;20181;-83
2021/11/26 05:24:00;;;;;;;22.33;15.07;;;5.30;99.90;;;5.32;71.15;99683.38;5069714;28;20177;-84
2021/11/26 05:26:31;;;;;;;21.15;14.13;;;5.30;99.90;;;5.29;70.99;99679.22;5053507;28;20276;-86
2021/11/26 05:29:08;;;;;;;30.60;15.13;;;5.30;99.90;;;5.21;71.39;99672.16;5053062;28;20213;-84
2021/11/26 05:31:41;;;;;;;29.48;15.60;;;5.20;99.90;;;5.28;70.90;99666.03;5067845;28;20279;-85
2021/11/26 05:34:23;;;;;;;20.70;13.60;;;5.20;99.90;;;5.25;70.99;99661.88;5079259;28;20198;-81
2021/11/26 05:37:08;;;;;;;24.40;13.20;;;5.20;99.90;;;5.32;70.74;99662.75;5078163;28;20192;-81
2021/11/26 05:39:44;;;;;;;21.80;13.43;;;5.30;99.90;;;5.34;71.02;99660.66;5071003;28;20267;-83
2021/11/26 05:42:17;;;;;;;23.08;14.30;;;5.30;99.90;;;5.35;71.29;99662.34;5059823;28;20242;-82
2021/11/26 05:44:50;;;;;;;25.77;15.00;;;5.30;99.90;;;5.24;71.22;99657.50;5073019;28;20173;-82
2021/11/26 05:47:22;;;;;;;23.92;13.50;;;5.20;99.90;;;5.43;70.78;99648.75;5070190;28;20211;-83
2021/11/26 05:49:51;;;;;;;25.83;13.70;;;5.30;99.90;;;5.27;71.28;99654.47;5075978;28;20199;-82
2021/11/26 05:52:20;;;;;;;28.30;13.18;;;5.30;99.90;;;5.27;71.44;99642.91;5075832;28;20200;-82
2021/11/26 05:54:49;;;;;;;23.88;14.70;;;5.30;99.90;;;5.29;71.30;99647.03;5059217;28;20249;-81
2021/11/26 05:57:22;;;;;;;24.70;13.18;;;5.30;99.90;;;5.21;71.64;99644.50;5059658;28;20220;-81
2021/11/26 06:00:04;;;;;;;26.05;14.15;;;5.20;99.90;;;5.48;70.53;99638.25;5059306;28;20230;-83
2021/11/26 06:02:50;;;;;;;24.20;14.95;;;5.40;99.90;;;5.44;70.80;99639.69;5059921;28;20188;-84
2021/11/26 06:05:30;;;;;;;19.05;12.73;;;5.40;99.90;;;5.29;70.99;99641.66;5059270;28;20173;-84
2021/11/26 06:08:07;;;;;;;26.80;14.10;;;5.30;99.90;;;5.32;70.68;99651.19;5077437;28;20227;-81
2021/11/26 06:10:50;;;;;;;21.80;13.20;;;5.30;99.90;;;5.31;70.82;99636.94;5059985;28;20185;-80
2021/11/26 06:13:27;;;;;;;28.50;13.82;;;5.30;99.90;;;5.31;70.85;99636.94;5053017;28;20239;-84
2021/11/26 06:16:10;;;;;;;26.25;15.18;;;5.30;99.90;;;5.40;70.47;99642.97;5060163;28;20176;-84
2021/11/26 06:18:48;;;;;;;25.65;13.80;;;5.40;99.90;;;5.30;70.94;99643.31;5075933;28;20232;-83
2021/11/26 06:21:20;;;;;;;24.77;14.77;;;5.30;99.90;;;5.44;70.85;99645.03;5059364;28;20196;-83
2021/11/26 06:23:58;;;;;;;26.40;15.52;;;5.40;99.90;;;5.31;71.46;99644.97;5077675;28;20298;-83
2021/11/26 06:26:40;;;;;;;23.50;13.77;;;5.30;99.90;;;5.33;71.08;99639.41;5076057;28;20185;-82
2021/11/26 06:29:17;;;;;;;27.73;15.93;;;5.30;99.90;;;5.33;71.54;99642.91;5059136;28;20227;-84
2021/11/26 06:31:50;;;;;;;25.83;14.93;;;5.30;99.90;;;5.42;71.79;99641.72;5075418;28;20201;-83
2021/11/26 06:34:29;;;;;;;26.50;16.20;;;5.40;99.90;;;5.61;70.76;99635.63;5073458;28;20216;-83
2021/11/26 06:37:08;;;;;;;21.13;15.00;;;5.50;99.90;;;5.46;71.23;99632.28;5075830;28;20200;-82
2021/11/26 06:39:46;;;;;;;28.58;15.60;;;5.50;99.90;;;5.45;71.01;99638.66;5058746;28;20184;-84
2021/11/26 06:42:22;;;;;;;23.13;14.25;;;5.50;99.90;;;5.46;70.81;99631.44;5056764;28;20180;-82
2021/11/26 06:45:01;;;;;;;25.48;14.18;;;5.40;99.90;;;5.62;70.23;99625.69;5072305;28;20183;-83
2021/11/26 06:51:08;;;;;;;23.83;14.02;;;5.50;99.90;;;5.36;69.88;99630.97;5051482;28;20199;-88
2021/11/26 06:54:37;;;;;;;20.35;12.65;;;5.40;99.90;;;5.36;69.69;99621.06;5074357;28;20216;-86
2021/11/26 07:09:35;;;;;;;19.73;11.02;;;5.40;99.90;;;5.38;68.58;99613.63;5050393;28;20224;-83
2021/11/26 07:13:10;;;;;;;21.05;11.98;;;5.40;99.90;;;5.33;68.31;99617.94;5067905;28;20193;-87
2021/11/26 07:16:05;;;;;;;21.58;13.85;;;5.40;99.90;;;5.29;68.90;99620.19;5071165;28;20619;-84
2021/11/26 07:18:39;;;;;;;22.13;12.85;;;5.30;99.90;;;5.45;68.36;99611.81;5051208;28;20236;-85
2021/11/26 07:21:26;;;;;;;25.33;11.95;;;5.40;99.90;;;5.38;68.38;99608.28;5055849;28;20185;-85
2021/11/26 07:24:09;;;;;;;18.95;11.70;;;5.40;99.90;;;5.33;68.37;99626.81;5045640;28;20224;-85
2021/11/26 07:26:55;;;;;;;22.85;10.82;;;5.30;99.90;;;5.35;68.00;99615.91;5054087;28;20189;-84
2021/11/26 07:29:29;;;;;;;17.00;12.55;;;5.30;99.90;;;5.38;68.35;99613.63;5028016;28;20288;-84
2021/11/26 07:32:29;;;;;;;22.38;10.80;;;5.30;99.90;;;5.24;68.23;99610.06;5023745;28;20201;-86
2021/11/26 07:35:01;;;;;;;26.08;11.65;;;5.30;99.90;;;5.32;68.26;99601.03;5021028;28;20284;-85
2021/11/26 07:37:43;;;;;;;23.77;13.00;;;5.30;99.90;;;5.43;67.38;99599.63;5045708;28;20205;-85
2021/11/26 07:40:20;;;;;;;18.85;10.50;;;5.40;99.90;;;5.43;67.57;99600.44;5058969;28;20192;-84
2021/11/26 07:42:49;;;;;;;26.13;14.07;;;5.40;99.90;;;5.51;67.89;99602.97;5041139;28;20261;-85
2021/11/26 07:45:24;;;;;;;23.67;11.95;;;5.50;99.90;;;5.53;67.78;99600.06;5041317;28;20295;-87
2021/11/26 07:48:01;;;;;;;16.48;12.25;;;5.50;99.90;;;5.50;67.37;99598.63;5057085;28;20216;-87
2021/11/26 07:50:34;;;;;;;19.95;11.27;;;5.50;99.90;;;5.40;67.55;99589.31;5057172;28;20266;-86
2021/11/26 07:53:22;;;;;;;17.92;11.45;;;5.40;99.90;;;5.54;67.93;99594.53;5065677;28;20201;-86
2021/11/26 07:55:58;;;;;;;21.90;12.82;;;5.50;99.90;;;5.59;67.47;99593.91;5038743;28;20196;-85
2021/11/26 07:58:30;;;;;;;24.83;13.35;;;5.50;99.90;;;5.46;67.89;99578.59;5043728;28;20219;-85
2021/11/26 08:01:04;;;;;;;20.90;11.95;;;5.40;99.90;;;5.61;67.10;99587.34;5026757;28;20241;-85
2021/11/26 08:03:48;;;;;;;20.40;12.65;;;5.50;99.90;;;5.58;67.32;99581.53;5047810;28;20679;-87
2021/11/26 08:06:23;;;;;;;28.60;12.88;;;5.50;99.90;;;5.66;67.53;99584.84;5033801;28;20247;-85
2021/11/26 08:09:06;;;;;;;18.83;10.10;;;5.60;99.90;;;5.64;67.51;99581.56;5033622;28;20304;-86
2021/11/26 08:11:45;;;;;;;20.52;10.43;;;5.60;99.90;;;5.68;67.39;99582.78;5049176;28;20276;-86
2021/11/26 08:14:25;;;;;;;22.83;10.88;;;5.60;99.90;;;5.66;67.24;99574.09;5049345;28;20640;-86
2021/11/26 08:16:59;;;;;;;18.23;10.60;;;5.70;99.90;;;5.67;67.53;99581.13;5053444;28;20185;-85
2021/11/26 08:19:44;;;;;;;27.02;10.57;;;5.60;99.90;;;5.80;66.91;99580.34;5052356;28;20284;-88
2021/11/26 08:22:19;;;;;;;15.98;9.60;;;5.70;99.90;;;5.91;66.82;99576.25;5064202;28;20185;-84
2021/11/26 08:24:55;;;;;;;17.80;10.40;;;5.80;99.90;;;5.85;66.92;99558.28;5056352;28;20185;-84
2021/11/26 08:27:36;;;;;;;22.00;10.10;;;5.80;99.90;;;5.90;67.17;99553.16;5051018;28;20192;-83
2021/11/26 08:30:13;;;;;;;26.55;11.30;;;5.80;99.90;;;5.88;66.48;99556.03;5045417;28;20212;-87
2021/11/26 08:32:54;;;;;;;25.67;10.23;;;5.70;99.90;;;6.11;66.26;99553.78;5070382;28;20184;-85
2021/11/26 08:35:30;;;;;;;15.88;10.20;;;6.00;99.90;;;6.17;66.38;99553.97;5068485;28;20212;-84
2021/11/26 08:38:04;;;;;;;16.30;10.48;;;6.00;99.90;;;6.27;65.77;99549.03;5034629;28;20218;-85
2021/11/26 08:40:38;;;;;;;18.58;9.95;;;6.10;99.90;;;6.29;66.02;99547.81;5036572;28;20220;-86
2021/11/26 08:43:18;;;;;;;13.25;9.35;;;6.20;99.90;;;6.26;65.62;99542.81;5029839;28;20603;-85
2021/11/26 08:45:53;;;;;;;13.77;10.05;;;6.20;99.90;;;6.38;65.48;99540.34;5026691;28;20547;-84
2021/11/26 08:48:24;;;;;;;13.57;9.40;;;6.30;99.90;;;6.37;65.35;99534.16;5024283;28;20213;-84
2021/11/26 08:50:55;;;;;;;27.95;9.75;;;6.30;99.90;;;6.52;64.28;99532.06;5040656;28;20212;-85
2021/11/26 08:53:26;;;;;;;16.85;9.80;;;6.40;99.90;;;6.54;65.30;99540.72;5025353;28;20200;-86
2021/11/26 08:55:58;;;;;;;19.05;11.18;;;6.40;99.90;;;6.55;64.85;99537.03;5060359;28;20192;-84
2021/11/26 08:58:29;;;;;;;22.10;12.40;;;6.40;99.90;;;6.48;64.75;99533.53;5047380;28;20213;-84
2021/11/26 09:01:00;;;;;;;24.55;11.98;;;6.40;99.90;;;6.63;64.46;99532.47;5064046;28;20231;-83
2021/11/26 09:03:36;;;;;;;19.17;12.15;;;6.50;99.90;;;6.65;64.33;99530.38;5053221;28;20208;-84
2021/11/26 09:06:07;;;;;;;17.02;10.45;;;6.60;99.90;;;6.54;65.09;99529.16;5040485;28;20221;-83
2021/11/26 09:08:37;;;;;;;18.27;11.13;;;6.50;99.90;;;6.57;64.29;99525.25;5042797;28;20231;-84
2021/11/26 09:11:09;;;;;;;16.48;10.13;;;6.50;99.90;;;6.58;64.15;99535.78;5028034;28;20200;-84
2021/11/26 09:13:39;;;;;;;19.42;10.98;;;6.50;99.90;;;6.57;64.26;99519.88;5058935;28;20203;-85
2021/11/26 09:16:09;;;;;;;17.95;10.75;;;6.50;99.90;;;6.54;64.21;99524.63;5036277;28;20209;-84
2021/11/26 09:18:39;;;;;;;15.68;9.30;;;6.50;99.90;;;6.69;63.76;99518.16;5049501;28;20232;-83
2021/11/26 09:21:09;;;;;;;24.88;12.23;;;6.50;99.90;;;6.96;63.09;99519.78;5059501;28;20188;-81
2021/11/26 09:23:39;;;;;;;26.63;10.68;;;6.70;99.90;;;6.68;63.31;99519.22;5073687;28;20176;-81
2021/11/26 09:26:10;;;;;;;19.77;10.70;;;6.70;99.90;;;6.76;63.68;99513.63;5056836;28;20199;-84
2021/11/26 09:28:40;;;;;;;19.92;10.18;;;6.60;99.90;;;6.73;63.43;99514.06;5047445;28;20293;-83
2021/11/26 09:31:10;;;;;;;24.23;12.05;;;6.60;99.90;;;7.01;62.82;99517.28;5042171;28;20238;-85
2021/11/26 09:33:40;;;;;;;19.38;10.50;;;6.80;99.90;;;7.16;62.63;99509.78;5044396;28;20272;-87
2021/11/26 09:36:12;;;;;;;20.60;8.88;;;6.90;99.90;;;7.02;62.03;99505.44;5059758;28;20205;-86
2021/11/26 09:38:44;;;;;;;20.13;10.60;;;6.90;99.90;;;6.92;62.25;99500.53;5046506;28;20209;-86
2021/11/26 09:41:16;;;;;;;23.98;10.27;;;6.90;99.90;;;7.20;61.92;99500.22;5060552;28;20186;-84
2021/11/26 09:44:01;;;;;;;16.08;10.30;;;7.00;99.90;;;7.17;61.79;99491.72;5050468;28;20709;-84
2021/11/26 09:46:34;;;;;;;16.30;10.40;;;7.10;99.90;;;7.24;61.97;99484.47;5049909;28;20221;-83
2021/11/26 09:49:04;;;;;;;20.17;10.98;;;7.10;99.90;;;7.24;61.33;99477.22;5049595;28;20212;-84
2021/11/26 09:51:35;;;;;;;22.40;12.15;;;7.10;99.90;;;7.46;61.28;99476.88;5066369;28;20197;-83
2021/11/26 09:54:05;;;;;;;20.88;11.88;;;7.30;99.90;;;7.65;60.27;99490.22;5066039;28;20217;-84
2021/11/26 09:56:35;;;;;;;19.23;12.15;;;7.40;99.90;;;7.53;60.69;99481.19;5073041;28;20174;-80
2021/11/26 09:59:04;;;;;;;19.08;11.63;;;7.50;99.90;;;7.50;60.67;99475.44;5057709;28;20201;-82
2021/11/26 10:01:34;;;;;;;21.42;12.52;;;7.40;99.90;;;7.72;60.32;99465.94;5040146;28;20188;-80
2021/11/26 10:04:18;;;;;;;21.05;10.93;;;7.50;99.90;;;7.61;60.00;99462.09;5054434;28;20626;-84
2021/11/26 10:06:49;;;;;;;24.90;12.77;;;7.50;99.90;;;7.59;60.02;99458.81;5042904;28;20196;-84
2021/11/26 10:09:21;;;;;;;23.67;12.30;;;7.40;99.90;;;7.66;59.57;99454.19;5057290;28;20240;-84
2021/11/26 10:11:55;;;;;;;18.17;11.38;;;7.50;99.90;;;7.48;59.45;99451.41;5057968;28;20181;-81
2021/11/26 10:14:27;;;;;;;18.50;11.77;;;7.30;99.90;;;7.40;59.71;99452.50;5057672;28;20263;-84
2021/11/26 10:17:13;;;;;;;17.73;10.10;;;7.30;99.90;;;7.57;58.71;99449.28;5040427;28;20649;-83
2021/11/26 10:19:46;;;;;;;14.77;9.65;;;7.40;99.90;;;7.72;58.63;99450.63;5040838;28;20248;-85
2021/11/26 10:22:19;;;;;;;18.02;10.88;;;7.50;99.90;;;7.58;58.93;99451.75;5057012;28;20228;-82
2021/11/26 10:25:05;;;;;;;20.90;11.77;;;7.40;99.90;;;7.70;58.10;99435.72;5068027;28;20189;-83
2021/11/26 10:27:48;;;;;;;17.40;11.80;;;7.50;99.90;;;7.54;58.58;99439.78;5059029;28;20541;-83
2021/11/26 10:30:23;;;;;;;21.27;10.70;;;7.40;99.90;;;7.92;57.81;99428.09;5060406;28;20703;-84
2021/11/26 10:32:56;;;;;;;21.17;11.25;;;7.70;99.90;;;7.82;58.35;99426.72;5060364;28;20180;-86
2021/11/26 10:35:27;;;;;;;17.35;12.45;;;7.70;99.90;;;7.86;58.10;99419.03;5060189;28;20211;-81
2021/11/26 10:38:00;;;;;;;14.88;10.15;;;7.70;99.90;;;7.63;58.08;99419.63;5054547;28;20199;-86
2021/11/26 10:40:33;;;;;;;19.63;10.93;;;7.60;99.90;;;7.40;58.46;99422.91;5074177;28;20189;-81
2021/11/26 10:43:07;;;;;;;14.45;11.23;;;7.50;99.90;;;7.38;58.61;99419.59;5076555;28;20213;-83
2021/11/26 10:51:56;;;;;;;17.23;10.48;;;7.20;99.90;;;7.39;58.51;99399.72;5041056;28;20173;-87
2021/11/26 10:57:41;;;;;;;21.75;11.80;;;7.20;99.90;;;7.24;59.74;99395.69;5067346;28;20235;-87
2021/11/26 11:01:17;;;;;;;20.83;13.43;;;7.10;99.90;;;7.26;60.35;99383.66;5051417;28;20191;-87
2021/11/26 11:03:50;;;;;;;18.58;12.85;;;7.10;99.90;;;7.54;60.29;99385.13;5063785;28;20637;-85
2021/11/26 11:06:25;;;;;;;18.30;12.75;;;7.20;99.90;;;7.65;59.56;99382.53;5061506;28;20195;-88
2021/11/26 11:09:06;;;;;;;22.55;13.75;;;7.40;99.90;;;7.63;59.90;99381.13;5101327;22;20232;-73
2021/11/26 11:11:53;;;;;;;20.60;15.50;;;7.40;99.90;;;7.57;60.39;99379.28;5019923;28;20196;-75
2021/11/26 11:14:25;;;;;;;25.60;15.85;;;7.40;99.90;;;7.41;60.81;99370.72;5032774;28;20201;-75